Terminal Aerodrome Forecast
Issued by NWS Wilmington, OH

Current Version | Previous Version | Text Only | Print | Product List | Glossary Off
Versions: 1 2 3 4 5 6 7 8 9 10 11 12 13 14 15 16 17 18 19 20 21 22 23 24 25 26 27 28 29 30 31 32

000
FTUS41 KILN 291100
TAFCVG
TAF
KCVG 291134Z 2912/3018 18006KT P6SM SCT120
     FM291700 19010KT P6SM SCT040
     FM292100 19010KT P6SM VCTS BKN040CB
     FM300000 19007KT P6SM SCT040
     FM300600 20007KT P6SM SCT050 BKN250
     FM301200 20008KT P6SM VCSH SCT040 BKN150=

USA.gov is the U.S. government's official web portal to all federal, state and local government web resources and services.